sensor_id;sensor_type;location;lat;lon;timestamp;temperature;humidity
48686;DHT22;34485;51.536;3.816;2022-10-17T00:01:43;15.40;99.90
48686;DHT22;34485;51.536;3.816;2022-10-17T00:04:08;15.40;99.90
48686;DHT22;34485;51.536;3.816;2022-10-17T00:06:34;15.50;99.90
48686;DHT22;34485;51.536;3.816;2022-10-17T00:09:00;15.50;99.90
48686;DHT22;34485;51.536;3.816;2022-10-17T00:11:25;15.50;99.90
48686;DHT22;34485;51.536;3.816;2022-10-17T00:13:53;15.50;99.90
48686;DHT22;34485;51.536;3.816;2022-10-17T00:16:24;15.60;99.90
48686;DHT22;34485;51.536;3.816;2022-10-17T00:18:50;15.50;99.90
48686;DHT22;34485;51.536;3.816;2022-10-17T00:21:19;15.50;99.90
48686;DHT22;34485;51.536;3.816;2022-10-17T00:23:45;15.50;99.90
48686;DHT22;34485;51.536;3.816;2022-10-17T00:26:11;15.50;99.90
48686;DHT22;34485;51.536;3.816;2022-10-17T00:28:37;15.50;99.90
48686;DHT22;34485;51.536;3.816;2022-10-17T00:31:05;15.50;99.90
48686;DHT22;34485;51.536;3.816;2022-10-17T00:33:32;15.50;99.90
48686;DHT22;34485;51.536;3.816;2022-10-17T00:38:35;15.60;99.90
48686;DHT22;34485;51.536;3.816;2022-10-17T00:41:01;15.50;99.90
48686;DHT22;34485;51.536;3.816;2022-10-17T00:43:27;15.60;99.90
48686;DHT22;34485;51.536;3.816;2022-10-17T00:45:54;15.60;99.90
48686;DHT22;34485;51.536;3.816;2022-10-17T00:48:21;15.50;99.90
48686;DHT22;34485;51.536;3.816;2022-10-17T00:50:49;15.50;99.90
48686;DHT22;34485;51.536;3.816;2022-10-17T00:53:15;15.50;99.90
48686;DHT22;34485;51.536;3.816;2022-10-17T00:55:47;15.50;99.90
48686;DHT22;34485;51.536;3.816;2022-10-17T00:58:13;15.40;99.90
48686;DHT22;34485;51.536;3.816;2022-10-17T01:00:41;15.40;99.90
48686;DHT22;34485;51.536;3.816;2022-10-17T01:03:07;15.40;99.90
48686;DHT22;34485;51.536;3.816;2022-10-17T01:05:33;15.40;99.90
48686;DHT22;34485;51.536;3.816;2022-10-17T01:07:59;15.40;99.90
48686;DHT22;34485;51.536;3.816;2022-10-17T01:10:34;15.50;99.90
48686;DHT22;34485;51.536;3.816;2022-10-17T01:13:21;15.50;99.90
48686;DHT22;34485;51.536;3.816;2022-10-17T01:16:07;15.50;99.90
48686;DHT22;34485;51.536;3.816;2022-10-17T01:21:40;15.50;99.90
48686;DHT22;34485;51.536;3.816;2022-10-17T01:24:30;15.50;99.90
48686;DHT22;34485;51.536;3.816;2022-10-17T01:27:24;15.50;99.90
48686;DHT22;34485;51.536;3.816;2022-10-17T01:32:57;15.40;99.90
48686;DHT22;34485;51.536;3.816;2022-10-17T01:35:40;15.40;99.90
48686;DHT22;34485;51.536;3.816;2022-10-17T01:43:54;15.40;99.90
48686;DHT22;34485;51.536;3.816;2022-10-17T01:46:35;15.30;99.90
48686;DHT22;34485;51.536;3.816;2022-10-17T01:49:03;15.30;99.90
48686;DHT22;34485;51.536;3.816;2022-10-17T01:51:37;15.30;99.90
48686;DHT22;34485;51.536;3.816;2022-10-17T01:54:09;15.20;99.90
48686;DHT22;34485;51.536;3.816;2022-10-17T01:56:37;15.20;99.90
48686;DHT22;34485;51.536;3.816;2022-10-17T01:59:12;15.20;99.90
48686;DHT22;34485;51.536;3.816;2022-10-17T02:01:41;15.20;99.90
48686;DHT22;34485;51.536;3.816;2022-10-17T02:04:09;15.20;99.90
48686;DHT22;34485;51.536;3.816;2022-10-17T02:06:36;15.20;99.90
48686;DHT22;34485;51.536;3.816;2022-10-17T02:09:22;15.20;99.90
48686;DHT22;34485;51.536;3.816;2022-10-17T02:18:25;15.30;99.90
48686;DHT22;34485;51.536;3.816;2022-10-17T02:23:27;15.40;99.90
48686;DHT22;34485;51.536;3.816;2022-10-17T02:26:40;15.40;99.90
48686;DHT22;34485;51.536;3.816;2022-10-17T02:29:16;15.40;99.90
48686;DHT22;34485;51.536;3.816;2022-10-17T02:31:50;15.40;99.90
48686;DHT22;34485;51.536;3.816;2022-10-17T02:34:26;15.40;99.90
48686;DHT22;34485;51.536;3.816;2022-10-17T02:36:57;15.40;99.90
48686;DHT22;34485;51.536;3.816;2022-10-17T02:39:25;15.40;99.90
48686;DHT22;34485;51.536;3.816;2022-10-17T02:41:54;15.40;99.90
48686;DHT22;34485;51.536;3.816;2022-10-17T02:44:21;15.30;99.90
48686;DHT22;34485;51.536;3.816;2022-10-17T02:46:53;15.30;99.90
48686;DHT22;34485;51.536;3.816;2022-10-17T02:49:24;15.30;99.90
48686;DHT22;34485;51.536;3.816;2022-10-17T02:52:13;15.30;99.90
48686;DHT22;34485;51.536;3.816;2022-10-17T02:54:44;15.30;99.90
48686;DHT22;34485;51.536;3.816;2022-10-17T02:57:23;15.30;99.90
48686;DHT22;34485;51.536;3.816;2022-10-17T02:59:49;15.20;99.90
48686;DHT22;34485;51.536;3.816;2022-10-17T03:02:15;15.20;99.90
48686;DHT22;34485;51.536;3.816;2022-10-17T03:04:45;15.20;99.90
48686;DHT22;34485;51.536;3.816;2022-10-17T03:07:11;15.10;99.90
48686;DHT22;34485;51.536;3.816;2022-10-17T03:09:37;15.00;99.90
48686;DHT22;34485;51.536;3.816;2022-10-17T03:12:03;15.00;99.90
48686;DHT22;34485;51.536;3.816;2022-10-17T03:14:29;14.90;99.90
48686;DHT22;34485;51.536;3.816;2022-10-17T03:16:54;14.90;99.90
48686;DHT22;34485;51.536;3.816;2022-10-17T03:19:20;14.90;99.90
48686;DHT22;34485;51.536;3.816;2022-10-17T03:21:45;14.90;99.90
48686;DHT22;34485;51.536;3.816;2022-10-17T03:24:11;14.80;99.90
48686;DHT22;34485;51.536;3.816;2022-10-17T03:26:37;14.90;99.90
48686;DHT22;34485;51.536;3.816;2022-10-17T03:29:02;14.90;99.90
48686;DHT22;34485;51.536;3.816;2022-10-17T03:31:28;14.80;99.90
48686;DHT22;34485;51.536;3.816;2022-10-17T03:33:54;14.80;99.90
48686;DHT22;34485;51.536;3.816;2022-10-17T03:36:20;14.80;99.90
48686;DHT22;34485;51.536;3.816;2022-10-17T03:38:46;14.80;99.90
48686;DHT22;34485;51.536;3.816;2022-10-17T03:41:12;14.80;99.90
48686;DHT22;34485;51.536;3.816;2022-10-17T03:43:38;14.80;99.90
48686;DHT22;34485;51.536;3.816;2022-10-17T03:46:05;14.90;99.90
48686;DHT22;34485;51.536;3.816;2022-10-17T03:48:30;15.00;99.90
48686;DHT22;34485;51.536;3.816;2022-10-17T03:51:05;15.00;99.90
48686;DHT22;34485;51.536;3.816;2022-10-17T03:53:31;15.10;99.90
48686;DHT22;34485;51.536;3.816;2022-10-17T03:56:11;15.10;99.90
48686;DHT22;34485;51.536;3.816;2022-10-17T03:58:37;15.20;99.90
48686;DHT22;34485;51.536;3.816;2022-10-17T04:01:04;15.20;99.90
48686;DHT22;34485;51.536;3.816;2022-10-17T04:03:30;15.20;99.90
48686;DHT22;34485;51.536;3.816;2022-10-17T04:06:00;15.20;99.90
48686;DHT22;34485;51.536;3.816;2022-10-17T04:08:26;15.20;99.90
48686;DHT22;34485;51.536;3.816;2022-10-17T04:10:56;15.20;99.90
48686;DHT22;34485;51.536;3.816;2022-10-17T04:13:22;15.20;99.90
48686;DHT22;34485;51.536;3.816;2022-10-17T04:15:59;15.20;99.90
48686;DHT22;34485;51.536;3.816;2022-10-17T04:18:25;15.20;99.90
48686;DHT22;34485;51.536;3.816;2022-10-17T04:20:51;15.20;99.90
48686;DHT22;34485;51.536;3.816;2022-10-17T04:23:17;15.20;99.90
48686;DHT22;34485;51.536;3.816;2022-10-17T04:25:43;15.30;99.90
48686;DHT22;34485;51.536;3.816;2022-10-17T04:28:09;15.40;99.90
48686;DHT22;34485;51.536;3.816;2022-10-17T04:33:00;15.30;99.90
48686;DHT22;34485;51.536;3.816;2022-10-17T04:35:26;15.50;99.90
48686;DHT22;34485;51.536;3.816;2022-10-17T04:37:52;15.50;99.90
48686;DHT22;34485;51.536;3.816;2022-10-17T04:40:17;15.60;99.90
48686;DHT22;34485;51.536;3.816;2022-10-17T04:42:43;15.60;99.90
48686;DHT22;34485;51.536;3.816;2022-10-17T04:45:09;15.60;99.90
48686;DHT22;34485;51.536;3.816;2022-10-17T04:47:34;15.70;99.90
48686;DHT22;34485;51.536;3.816;2022-10-17T04:50:00;15.70;99.90
48686;DHT22;34485;51.536;3.816;2022-10-17T04:52:26;15.70;99.90
48686;DHT22;34485;51.536;3.816;2022-10-17T04:54:51;15.80;99.90
48686;DHT22;34485;51.536;3.816;2022-10-17T04:57:18;15.90;99.90
48686;DHT22;34485;51.536;3.816;2022-10-17T04:59:44;15.90;99.90
48686;DHT22;34485;51.536;3.816;2022-10-17T05:02:09;16.00;99.90
48686;DHT22;34485;51.536;3.816;2022-10-17T05:04:35;16.00;99.90
48686;DHT22;34485;51.536;3.816;2022-10-17T05:07:01;16.00;99.90
48686;DHT22;34485;51.536;3.816;2022-10-17T05:09:27;16.10;99.90
48686;DHT22;34485;51.536;3.816;2022-10-17T05:11:52;16.10;99.90
48686;DHT22;34485;51.536;3.816;2022-10-17T05:14:18;16.20;99.90
48686;DHT22;34485;51.536;3.816;2022-10-17T05:16:44;16.20;99.90
48686;DHT22;34485;51.536;3.816;2022-10-17T05:19:10;16.20;99.90
48686;DHT22;34485;51.536;3.816;2022-10-17T05:24:06;16.20;99.90
48686;DHT22;34485;51.536;3.816;2022-10-17T05:26:32;16.20;99.90
48686;DHT22;34485;51.536;3.816;2022-10-17T05:29:02;16.20;99.90
48686;DHT22;34485;51.536;3.816;2022-10-17T05:31:29;16.20;99.90
48686;DHT22;34485;51.536;3.816;2022-10-17T05:33:55;16.20;99.90
48686;DHT22;34485;51.536;3.816;2022-10-17T05:36:24;16.20;99.90
48686;DHT22;34485;51.536;3.816;2022-10-17T05:38:50;16.20;99.90
48686;DHT22;34485;51.536;3.816;2022-10-17T05:41:17;16.20;99.90
48686;DHT22;34485;51.536;3.816;2022-10-17T05:43:42;16.20;99.90
48686;DHT22;34485;51.536;3.816;2022-10-17T05:46:08;16.20;99.90
48686;DHT22;34485;51.536;3.816;2022-10-17T05:48:34;16.20;99.90
48686;DHT22;34485;51.536;3.816;2022-10-17T05:51:02;16.20;99.90
48686;DHT22;34485;51.536;3.816;2022-10-17T05:53:33;16.30;99.90
48686;DHT22;34485;51.536;3.816;2022-10-17T05:56:00;16.30;99.90
48686;DHT22;34485;51.536;3.816;2022-10-17T05:58:27;16.30;99.90
48686;DHT22;34485;51.536;3.816;2022-10-17T06:00:57;16.40;99.90
48686;DHT22;34485;51.536;3.816;2022-10-17T06:03:23;16.40;99.90
48686;DHT22;34485;51.536;3.816;2022-10-17T06:05:49;16.40;99.90
48686;DHT22;34485;51.536;3.816;2022-10-17T06:08:16;16.40;99.90
48686;DHT22;34485;51.536;3.816;2022-10-17T06:10:41;16.40;99.90
48686;DHT22;34485;51.536;3.816;2022-10-17T06:13:07;16.40;99.90
48686;DHT22;34485;51.536;3.816;2022-10-17T06:15:32;16.50;99.90
48686;DHT22;34485;51.536;3.816;2022-10-17T06:17:58;16.50;99.90
48686;DHT22;34485;51.536;3.816;2022-10-17T06:20:24;16.50;99.90
48686;DHT22;34485;51.536;3.816;2022-10-17T06:22:49;16.50;99.90
48686;DHT22;34485;51.536;3.816;2022-10-17T06:25:15;16.60;99.90
48686;DHT22;34485;51.536;3.816;2022-10-17T06:27:40;16.60;99.90
48686;DHT22;34485;51.536;3.816;2022-10-17T06:30:06;16.60;99.90
48686;DHT22;34485;51.536;3.816;2022-10-17T06:32:32;16.70;99.90
48686;DHT22;34485;51.536;3.816;2022-10-17T06:34:58;16.60;99.90
48686;DHT22;34485;51.536;3.816;2022-10-17T06:37:23;16.70;99.90
48686;DHT22;34485;51.536;3.816;2022-10-17T06:39:49;16.60;99.90
48686;DHT22;34485;51.536;3.816;2022-10-17T06:42:14;16.60;99.90
48686;DHT22;34485;51.536;3.816;2022-10-17T06:44:40;16.60;99.90
48686;DHT22;34485;51.536;3.816;2022-10-17T06:47:06;16.50;99.90
48686;DHT22;34485;51.536;3.816;2022-10-17T06:49:32;16.60;99.90
48686;DHT22;34485;51.536;3.816;2022-10-17T06:51:59;16.60;99.90
48686;DHT22;34485;51.536;3.816;2022-10-17T06:54:25;16.50;99.90
48686;DHT22;34485;51.536;3.816;2022-10-17T06:56:52;16.50;99.90
48686;DHT22;34485;51.536;3.816;2022-10-17T06:59:17;16.50;99.90
48686;DHT22;34485;51.536;3.816;2022-10-17T07:01:43;16.60;99.90
48686;DHT22;34485;51.536;3.816;2022-10-17T07:04:09;16.60;99.90
48686;DHT22;34485;51.536;3.816;2022-10-17T07:06:34;16.60;99.90
48686;DHT22;34485;51.536;3.816;2022-10-17T07:09:00;16.60;99.90
48686;DHT22;34485;51.536;3.816;2022-10-17T07:11:27;16.60;99.90
48686;DHT22;34485;51.536;3.816;2022-10-17T07:13:52;16.50;99.90
48686;DHT22;34485;51.536;3.816;2022-10-17T07:16:18;16.60;99.90
48686;DHT22;34485;51.536;3.816;2022-10-17T07:18:48;16.60;99.90
48686;DHT22;34485;51.536;3.816;2022-10-17T07:21:14;16.60;99.90
48686;DHT22;34485;51.536;3.816;2022-10-17T07:23:39;16.60;99.90
48686;DHT22;34485;51.536;3.816;2022-10-17T07:26:08;16.60;99.90
48686;DHT22;34485;51.536;3.816;2022-10-17T07:28:36;16.60;99.90
48686;DHT22;34485;51.536;3.816;2022-10-17T07:31:06;16.60;99.90
48686;DHT22;34485;51.536;3.816;2022-10-17T07:33:33;16.50;99.90
48686;DHT22;34485;51.536;3.816;2022-10-17T07:36:00;16.50;99.90
48686;DHT22;34485;51.536;3.816;2022-10-17T07:38:26;16.50;99.90
48686;DHT22;34485;51.536;3.816;2022-10-17T07:41:00;16.50;99.90
48686;DHT22;34485;51.536;3.816;2022-10-17T07:43:27;16.50;99.90
48686;DHT22;34485;51.536;3.816;2022-10-17T07:45:53;16.50;99.90
48686;DHT22;34485;51.536;3.816;2022-10-17T07:48:19;16.50;99.90
48686;DHT22;34485;51.536;3.816;2022-10-17T07:50:45;16.50;99.90
48686;DHT22;34485;51.536;3.816;2022-10-17T07:53:11;16.50;99.90
48686;DHT22;34485;51.536;3.816;2022-10-17T07:55:38;16.60;99.90
48686;DHT22;34485;51.536;3.816;2022-10-17T07:58:04;16.60;99.90
48686;DHT22;34485;51.536;3.816;2022-10-17T08:00:29;16.60;99.90
48686;DHT22;34485;51.536;3.816;2022-10-17T08:05:21;16.50;99.90
48686;DHT22;34485;51.536;3.816;2022-10-17T08:07:46;16.70;99.90
48686;DHT22;34485;51.536;3.816;2022-10-17T08:10:13;16.60;99.90
48686;DHT22;34485;51.536;3.816;2022-10-17T08:12:40;16.70;99.90
48686;DHT22;34485;51.536;3.816;2022-10-17T08:15:06;16.70;99.90
48686;DHT22;34485;51.536;3.816;2022-10-17T08:17:34;16.70;99.90
48686;DHT22;34485;51.536;3.816;2022-10-17T08:20:00;16.70;99.90
48686;DHT22;34485;51.536;3.816;2022-10-17T08:22:25;16.70;99.90
48686;DHT22;34485;51.536;3.816;2022-10-17T08:24:52;16.70;99.90
48686;DHT22;34485;51.536;3.816;2022-10-17T08:27:17;16.70;99.90
48686;DHT22;34485;51.536;3.816;2022-10-17T08:29:49;16.70;99.90
48686;DHT22;34485;51.536;3.816;2022-10-17T08:32:18;16.70;99.90
48686;DHT22;34485;51.536;3.816;2022-10-17T08:34:44;16.70;99.90
48686;DHT22;34485;51.536;3.816;2022-10-17T08:37:09;16.70;99.90
48686;DHT22;34485;51.536;3.816;2022-10-17T08:39:38;16.80;99.90
48686;DHT22;34485;51.536;3.816;2022-10-17T08:47:46;16.90;99.90
48686;DHT22;34485;51.536;3.816;2022-10-17T08:50:39;16.90;99.90
48686;DHT22;34485;51.536;3.816;2022-10-17T08:53:40;16.90;99.90
48686;DHT22;34485;51.536;3.816;2022-10-17T08:56:18;17.00;99.90
48686;DHT22;34485;51.536;3.816;2022-10-17T08:58:45;17.00;99.90
48686;DHT22;34485;51.536;3.816;2022-10-17T09:06:42;16.90;99.90
48686;DHT22;34485;51.536;3.816;2022-10-17T09:09:36;16.90;99.90
48686;DHT22;34485;51.536;3.816;2022-10-17T09:12:17;16.90;99.90
48686;DHT22;34485;51.536;3.816;2022-10-17T09:20:09;16.80;99.90
48686;DHT22;34485;51.536;3.816;2022-10-17T09:25:15;16.80;99.90
48686;DHT22;34485;51.536;3.816;2022-10-17T09:27:45;16.80;99.90
48686;DHT22;34485;51.536;3.816;2022-10-17T09:30:46;16.70;99.90
48686;DHT22;34485;51.536;3.816;2022-10-17T09:33:15;16.70;99.90
48686;DHT22;34485;51.536;3.816;2022-10-17T09:35:42;16.70;99.90
48686;DHT22;34485;51.536;3.816;2022-10-17T09:38:17;16.70;99.90
48686;DHT22;34485;51.536;3.816;2022-10-17T09:40:45;16.60;99.90
48686;DHT22;34485;51.536;3.816;2022-10-17T09:43:12;16.60;99.90
48686;DHT22;34485;51.536;3.816;2022-10-17T09:45:45;16.60;99.90
48686;DHT22;34485;51.536;3.816;2022-10-17T09:48:25;16.60;99.90
48686;DHT22;34485;51.536;3.816;2022-10-17T09:50:55;16.60;99.90
48686;DHT22;34485;51.536;3.816;2022-10-17T09:53:35;16.60;99.90
48686;DHT22;34485;51.536;3.816;2022-10-17T09:56:08;16.60;99.90
48686;DHT22;34485;51.536;3.816;2022-10-17T09:59:02;16.60;99.90
48686;DHT22;34485;51.536;3.816;2022-10-17T10:01:29;16.60;99.90
48686;DHT22;34485;51.536;3.816;2022-10-17T10:04:13;16.70;99.90
48686;DHT22;34485;51.536;3.816;2022-10-17T10:06:40;16.70;99.90
48686;DHT22;34485;51.536;3.816;2022-10-17T10:09:16;16.70;99.90
48686;DHT22;34485;51.536;3.816;2022-10-17T10:11:49;16.80;99.90
48686;DHT22;34485;51.536;3.816;2022-10-17T10:14:33;16.90;99.90
48686;DHT22;34485;51.536;3.816;2022-10-17T10:17:00;17.00;99.90
48686;DHT22;34485;51.536;3.816;2022-10-17T10:19:33;17.00;99.90
48686;DHT22;34485;51.536;3.816;2022-10-17T10:22:13;17.10;99.90
48686;DHT22;34485;51.536;3.816;2022-10-17T10:24:40;17.10;99.90
48686;DHT22;34485;51.536;3.816;2022-10-17T10:27:17;17.20;99.90
48686;DHT22;34485;51.536;3.816;2022-10-17T10:29:48;17.30;99.90
48686;DHT22;34485;51.536;3.816;2022-10-17T10:32:28;17.40;99.90
48686;DHT22;34485;51.536;3.816;2022-10-17T10:37:50;17.70;99.90
48686;DHT22;34485;51.536;3.816;2022-10-17T10:40:28;17.80;99.90
48686;DHT22;34485;51.536;3.816;2022-10-17T10:42:57;18.00;99.90
48686;DHT22;34485;51.536;3.816;2022-10-17T10:45:28;18.20;99.90
48686;DHT22;34485;51.536;3.816;2022-10-17T10:48:18;18.40;99.90
48686;DHT22;34485;51.536;3.816;2022-10-17T10:51:01;18.70;99.90
48686;DHT22;34485;51.536;3.816;2022-10-17T10:53:51;19.00;99.90
48686;DHT22;34485;51.536;3.816;2022-10-17T10:56:24;19.20;99.90
48686;DHT22;34485;51.536;3.816;2022-10-17T10:58:54;19.30;99.90
48686;DHT22;34485;51.536;3.816;2022-10-17T11:06:36;19.50;99.90
48686;DHT22;34485;51.536;3.816;2022-10-17T11:09:25;19.60;99.90
48686;DHT22;34485;51.536;3.816;2022-10-17T11:11:59;19.80;99.90
48686;DHT22;34485;51.536;3.816;2022-10-17T11:14:43;20.10;99.90
48686;DHT22;34485;51.536;3.816;2022-10-17T11:17:18;20.00;99.90
48686;DHT22;34485;51.536;3.816;2022-10-17T11:19:58;19.90;99.90
48686;DHT22;34485;51.536;3.816;2022-10-17T11:22:31;19.90;99.90
48686;DHT22;34485;51.536;3.816;2022-10-17T11:25:05;19.90;99.90
48686;DHT22;34485;51.536;3.816;2022-10-17T11:27:33;20.00;99.90
48686;DHT22;34485;51.536;3.816;2022-10-17T11:30:00;20.10;99.90
48686;DHT22;34485;51.536;3.816;2022-10-17T11:35:02;19.90;99.90
48686;DHT22;34485;51.536;3.816;2022-10-17T11:37:39;19.90;99.90
48686;DHT22;34485;51.536;3.816;2022-10-17T11:40:43;20.00;99.90
48686;DHT22;34485;51.536;3.816;2022-10-17T11:43:32;20.00;99.90
48686;DHT22;34485;51.536;3.816;2022-10-17T11:46:23;20.00;99.90
48686;DHT22;34485;51.536;3.816;2022-10-17T11:49:03;20.10;99.90
48686;DHT22;34485;51.536;3.816;2022-10-17T11:51:35;20.10;99.90
48686;DHT22;34485;51.536;3.816;2022-10-17T11:54:23;20.10;99.90
48686;DHT22;34485;51.536;3.816;2022-10-17T12:05:47;20.20;99.90
48686;DHT22;34485;51.536;3.816;2022-10-17T12:08:30;20.20;99.90
48686;DHT22;34485;51.536;3.816;2022-10-17T12:11:06;20.10;99.90
48686;DHT22;34485;51.536;3.816;2022-10-17T12:18:44;19.80;99.90
48686;DHT22;34485;51.536;3.816;2022-10-17T12:21:10;19.70;99.90
48686;DHT22;34485;51.536;3.816;2022-10-17T12:23:36;19.60;99.90
48686;DHT22;34485;51.536;3.816;2022-10-17T12:26:07;19.50;99.90
48686;DHT22;34485;51.536;3.816;2022-10-17T12:49:45;19.40;99.90
48686;DHT22;34485;51.536;3.816;2022-10-17T12:54:50;19.20;99.90
48686;DHT22;34485;51.536;3.816;2022-10-17T13:00:36;19.20;99.90
48686;DHT22;34485;51.536;3.816;2022-10-17T13:03:19;19.20;99.90
48686;DHT22;34485;51.536;3.816;2022-10-17T13:05:59;19.20;99.90
48686;DHT22;34485;51.536;3.816;2022-10-17T13:08:39;19.30;99.90
48686;DHT22;34485;51.536;3.816;2022-10-17T13:11:08;19.30;99.90
48686;DHT22;34485;51.536;3.816;2022-10-17T13:13:48;19.40;99.90
48686;DHT22;34485;51.536;3.816;2022-10-17T13:16:32;19.50;99.90
48686;DHT22;34485;51.536;3.816;2022-10-17T13:18:59;19.50;99.90
48686;DHT22;34485;51.536;3.816;2022-10-17T13:21:26;19.60;99.90
48686;DHT22;34485;51.536;3.816;2022-10-17T13:23:52;19.70;99.90
48686;DHT22;34485;51.536;3.816;2022-10-17T13:26:19;19.80;99.90
48686;DHT22;34485;51.536;3.816;2022-10-17T13:29:05;19.90;99.90
48686;DHT22;34485;51.536;3.816;2022-10-17T13:31:39;19.90;99.90
48686;DHT22;34485;51.536;3.816;2022-10-17T13:34:16;20.00;99.90
48686;DHT22;34485;51.536;3.816;2022-10-17T13:36:43;20.00;99.90
48686;DHT22;34485;51.536;3.816;2022-10-17T13:39:16;20.00;99.90
48686;DHT22;34485;51.536;3.816;2022-10-17T13:41:42;20.00;99.90
48686;DHT22;34485;51.536;3.816;2022-10-17T13:44:16;20.10;99.90
48686;DHT22;34485;51.536;3.816;2022-10-17T13:46:42;20.20;99.90
48686;DHT22;34485;51.536;3.816;2022-10-17T13:49:21;20.20;99.90
48686;DHT22;34485;51.536;3.816;2022-10-17T13:51:50;20.20;99.90
48686;DHT22;34485;51.536;3.816;2022-10-17T13:56:59;20.10;99.90
48686;DHT22;34485;51.536;3.816;2022-10-17T13:59:37;19.90;99.90
48686;DHT22;34485;51.536;3.816;2022-10-17T14:02:05;19.90;99.90
48686;DHT22;34485;51.536;3.816;2022-10-17T14:04:37;19.80;99.90
48686;DHT22;34485;51.536;3.816;2022-10-17T14:07:04;19.80;99.90
48686;DHT22;34485;51.536;3.816;2022-10-17T14:09:32;19.80;99.90
48686;DHT22;34485;51.536;3.816;2022-10-17T14:12:02;19.70;99.90
48686;DHT22;34485;51.536;3.816;2022-10-17T14:14:28;19.70;99.90
48686;DHT22;34485;51.536;3.816;2022-10-17T14:16:54;19.70;99.90
48686;DHT22;34485;51.536;3.816;2022-10-17T14:19:33;19.70;99.90
48686;DHT22;34485;51.536;3.816;2022-10-17T14:24:48;19.60;99.90
48686;DHT22;34485;51.536;3.816;2022-10-17T14:29:56;19.70;99.90
48686;DHT22;34485;51.536;3.816;2022-10-17T14:32:26;19.70;99.90
48686;DHT22;34485;51.536;3.816;2022-10-17T14:34:54;19.70;99.90
48686;DHT22;34485;51.536;3.816;2022-10-17T14:37:45;19.70;99.90
48686;DHT22;34485;51.536;3.816;2022-10-17T14:40:17;19.70;99.90
48686;DHT22;34485;51.536;3.816;2022-10-17T14:42:43;19.60;99.90
48686;DHT22;34485;51.536;3.816;2022-10-17T14:45:16;19.50;99.90
48686;DHT22;34485;51.536;3.816;2022-10-17T14:47:49;19.40;99.90
48686;DHT22;34485;51.536;3.816;2022-10-17T14:52:40;19.40;99.90
48686;DHT22;34485;51.536;3.816;2022-10-17T14:55:22;19.30;99.90
48686;DHT22;34485;51.536;3.816;2022-10-17T14:57:48;19.20;99.90
48686;DHT22;34485;51.536;3.816;2022-10-17T15:00:15;19.20;99.90
48686;DHT22;34485;51.536;3.816;2022-10-17T15:02:41;19.10;99.90
48686;DHT22;34485;51.536;3.816;2022-10-17T15:05:07;19.00;99.90
48686;DHT22;34485;51.536;3.816;2022-10-17T15:07:33;19.00;99.90
48686;DHT22;34485;51.536;3.816;2022-10-17T15:09:58;18.90;99.90
48686;DHT22;34485;51.536;3.816;2022-10-17T15:12:24;18.90;99.90
48686;DHT22;34485;51.536;3.816;2022-10-17T15:14:50;18.90;99.90
48686;DHT22;34485;51.536;3.816;2022-10-17T15:17:31;18.90;99.90
48686;DHT22;34485;51.536;3.816;2022-10-17T15:19:57;18.80;99.90
48686;DHT22;34485;51.536;3.816;2022-10-17T15:22:23;18.80;99.90
48686;DHT22;34485;51.536;3.816;2022-10-17T15:24:49;18.70;99.90
48686;DHT22;34485;51.536;3.816;2022-10-17T15:27:22;18.70;99.90
48686;DHT22;34485;51.536;3.816;2022-10-17T15:29:49;18.60;99.90
48686;DHT22;34485;51.536;3.816;2022-10-17T15:32:15;18.60;99.90
48686;DHT22;34485;51.536;3.816;2022-10-17T15:34:41;18.50;99.90
48686;DHT22;34485;51.536;3.816;2022-10-17T15:37:17;18.50;99.90
48686;DHT22;34485;51.536;3.816;2022-10-17T15:39:47;18.40;99.90
48686;DHT22;34485;51.536;3.816;2022-10-17T15:42:17;18.40;99.90
48686;DHT22;34485;51.536;3.816;2022-10-17T15:44:43;18.40;99.90
48686;DHT22;34485;51.536;3.816;2022-10-17T15:47:21;18.30;99.90
48686;DHT22;34485;51.536;3.816;2022-10-17T15:49:48;18.20;99.90
48686;DHT22;34485;51.536;3.816;2022-10-17T15:52:13;18.20;99.90
48686;DHT22;34485;51.536;3.816;2022-10-17T15:54:39;18.10;99.90
48686;DHT22;34485;51.536;3.816;2022-10-17T15:57:05;18.10;99.90
48686;DHT22;34485;51.536;3.816;2022-10-17T15:59:32;18.00;99.90
48686;DHT22;34485;51.536;3.816;2022-10-17T16:01:58;17.90;99.90
48686;DHT22;34485;51.536;3.816;2022-10-17T16:04:24;17.90;99.90
48686;DHT22;34485;51.536;3.816;2022-10-17T16:06:51;17.80;99.90
48686;DHT22;34485;51.536;3.816;2022-10-17T16:09:17;17.70;99.90
48686;DHT22;34485;51.536;3.816;2022-10-17T16:11:43;17.70;99.90
48686;DHT22;34485;51.536;3.816;2022-10-17T16:14:12;17.60;99.90
48686;DHT22;34485;51.536;3.816;2022-10-17T16:16:38;17.50;99.90
48686;DHT22;34485;51.536;3.816;2022-10-17T16:19:04;17.50;99.90
48686;DHT22;34485;51.536;3.816;2022-10-17T16:21:32;17.40;99.90
48686;DHT22;34485;51.536;3.816;2022-10-17T16:23:58;17.30;99.90
48686;DHT22;34485;51.536;3.816;2022-10-17T16:26:25;17.30;99.90
48686;DHT22;34485;51.536;3.816;2022-10-17T16:28:51;17.20;99.90
48686;DHT22;34485;51.536;3.816;2022-10-17T16:31:20;17.10;99.90
48686;DHT22;34485;51.536;3.816;2022-10-17T16:33:47;17.10;99.90
48686;DHT22;34485;51.536;3.816;2022-10-17T16:36:14;17.00;99.90
48686;DHT22;34485;51.536;3.816;2022-10-17T16:38:39;17.00;99.90
48686;DHT22;34485;51.536;3.816;2022-10-17T16:41:20;17.00;99.90
48686;DHT22;34485;51.536;3.816;2022-10-17T16:43:50;16.90;99.90
48686;DHT22;34485;51.536;3.816;2022-10-17T16:46:17;16.90;99.90
48686;DHT22;34485;51.536;3.816;2022-10-17T16:48:43;16.80;99.90
48686;DHT22;34485;51.536;3.816;2022-10-17T16:51:09;16.80;99.90
48686;DHT22;34485;51.536;3.816;2022-10-17T16:53:35;16.70;99.90
48686;DHT22;34485;51.536;3.816;2022-10-17T16:56:05;16.70;99.90
48686;DHT22;34485;51.536;3.816;2022-10-17T16:58:31;16.60;99.90
48686;DHT22;34485;51.536;3.816;2022-10-17T17:01:05;16.60;99.90
48686;DHT22;34485;51.536;3.816;2022-10-17T17:03:37;16.70;99.90
48686;DHT22;34485;51.536;3.816;2022-10-17T17:06:05;16.60;99.90
48686;DHT22;34485;51.536;3.816;2022-10-17T17:08:32;16.60;99.90
48686;DHT22;34485;51.536;3.816;2022-10-17T17:10:57;16.60;99.90
48686;DHT22;34485;51.536;3.816;2022-10-17T17:13:25;16.60;99.90
48686;DHT22;34485;51.536;3.816;2022-10-17T17:15:50;16.60;99.90
48686;DHT22;34485;51.536;3.816;2022-10-17T17:18:21;16.60;99.90
48686;DHT22;34485;51.536;3.816;2022-10-17T17:20:46;16.50;99.90
48686;DHT22;34485;51.536;3.816;2022-10-17T17:25:38;16.50;99.90
48686;DHT22;34485;51.536;3.816;2022-10-17T17:28:05;16.50;99.90
48686;DHT22;34485;51.536;3.816;2022-10-17T17:30:34;16.50;99.90
48686;DHT22;34485;51.536;3.816;2022-10-17T17:33:01;16.50;99.90
48686;DHT22;34485;51.536;3.816;2022-10-17T17:35:27;16.50;99.90
48686;DHT22;34485;51.536;3.816;2022-10-17T17:37:53;16.40;99.90
48686;DHT22;34485;51.536;3.816;2022-10-17T17:40:18;16.40;99.90
48686;DHT22;34485;51.536;3.816;2022-10-17T17:42:44;16.40;99.90